sensor_id;sensor_type;location;lat;lon;timestamp;P1;durP1;ratioP1;P2;durP2;ratioP2
22131;SDS011;11232;51.748;19.390;2023-07-31T00:00:37;4.05;;;2.70;;
22131;SDS011;11232;51.748;19.390;2023-07-31T00:03:03;5.93;;;2.70;;
22131;SDS011;11232;51.748;19.390;2023-07-31T00:05:29;3.20;;;2.80;;
22131;SDS011;11232;51.748;19.390;2023-07-31T00:07:55;4.32;;;2.72;;
22131;SDS011;11232;51.748;19.390;2023-07-31T00:10:21;3.47;;;2.90;;
22131;SDS011;11232;51.748;19.390;2023-07-31T00:12:47;7.07;;;3.38;;
22131;SDS011;11232;51.748;19.390;2023-07-31T00:15:13;6.13;;;3.50;;
22131;SDS011;11232;51.748;19.390;2023-07-31T00:17:39;8.90;;;3.83;;
22131;SDS011;11232;51.748;19.390;2023-07-31T00:20:05;7.78;;;3.53;;
22131;SDS011;11232;51.748;19.390;2023-07-31T00:22:32;6.40;;;3.60;;
22131;SDS011;11232;51.748;19.390;2023-07-31T00:24:58;5.32;;;3.83;;
22131;SDS011;11232;51.748;19.390;2023-07-31T00:27:24;5.53;;;3.47;;
22131;SDS011;11232;51.748;19.390;2023-07-31T00:29:50;4.10;;;3.70;;
22131;SDS011;11232;51.748;19.390;2023-07-31T00:32:16;8.38;;;4.47;;
22131;SDS011;11232;51.748;19.390;2023-07-31T00:34:42;5.78;;;3.70;;
22131;SDS011;11232;51.748;19.390;2023-07-31T00:37:08;7.05;;;3.78;;
22131;SDS011;11232;51.748;19.390;2023-07-31T00:39:34;5.47;;;3.42;;
22131;SDS011;11232;51.748;19.390;2023-07-31T00:42:00;4.95;;;3.80;;
22131;SDS011;11232;51.748;19.390;2023-07-31T00:44:26;7.38;;;4.10;;
22131;SDS011;11232;51.748;19.390;2023-07-31T00:46:52;5.88;;;3.75;;
22131;SDS011;11232;51.748;19.390;2023-07-31T00:49:20;6.82;;;4.28;;
22131;SDS011;11232;51.748;19.390;2023-07-31T00:51:46;7.57;;;3.95;;
22131;SDS011;11232;51.748;19.390;2023-07-31T00:54:12;5.90;;;3.80;;
22131;SDS011;11232;51.748;19.390;2023-07-31T00:56:38;9.23;;;4.50;;
22131;SDS011;11232;51.748;19.390;2023-07-31T00:59:04;6.97;;;4.00;;
22131;SDS011;11232;51.748;19.390;2023-07-31T01:01:30;4.63;;;3.80;;
22131;SDS011;11232;51.748;19.390;2023-07-31T01:03:56;8.60;;;4.05;;
22131;SDS011;11232;51.748;19.390;2023-07-31T01:06:25;9.63;;;4.40;;
22131;SDS011;11232;51.748;19.390;2023-07-31T01:08:56;5.00;;;3.88;;
22131;SDS011;11232;51.748;19.390;2023-07-31T01:11:26;9.55;;;4.75;;
22131;SDS011;11232;51.748;19.390;2023-07-31T01:13:53;4.80;;;3.83;;
22131;SDS011;11232;51.748;19.390;2023-07-31T01:16:19;6.43;;;4.20;;
22131;SDS011;11232;51.748;19.390;2023-07-31T01:18:45;7.85;;;4.47;;
22131;SDS011;11232;51.748;19.390;2023-07-31T01:21:37;5.90;;;4.00;;
22131;SDS011;11232;51.748;19.390;2023-07-31T01:24:23;9.70;;;4.53;;
22131;SDS011;11232;51.748;19.390;2023-07-31T01:27:06;6.72;;;3.95;;
22131;SDS011;11232;51.748;19.390;2023-07-31T01:32:04;4.32;;;3.92;;
22131;SDS011;11232;51.748;19.390;2023-07-31T01:34:30;5.18;;;3.90;;
22131;SDS011;11232;51.748;19.390;2023-07-31T01:36:57;6.25;;;4.47;;
22131;SDS011;11232;51.748;19.390;2023-07-31T01:39:23;10.50;;;4.80;;
22131;SDS011;11232;51.748;19.390;2023-07-31T01:41:49;7.63;;;3.92;;
22131;SDS011;11232;51.748;19.390;2023-07-31T01:44:15;6.97;;;4.03;;
22131;SDS011;11232;51.748;19.390;2023-07-31T01:46:41;7.97;;;4.47;;
22131;SDS011;11232;51.748;19.390;2023-07-31T01:49:07;6.68;;;3.70;;
22131;SDS011;11232;51.748;19.390;2023-07-31T01:51:33;5.07;;;4.25;;
22131;SDS011;11232;51.748;19.390;2023-07-31T01:53:59;9.35;;;4.40;;
22131;SDS011;11232;51.748;19.390;2023-07-31T01:56:25;5.65;;;3.90;;
22131;SDS011;11232;51.748;19.390;2023-07-31T01:58:51;4.55;;;3.85;;
22131;SDS011;11232;51.748;19.390;2023-07-31T02:01:17;6.40;;;4.43;;
22131;SDS011;11232;51.748;19.390;2023-07-31T02:03:43;8.85;;;4.40;;
22131;SDS011;11232;51.748;19.390;2023-07-31T02:06:09;6.55;;;4.70;;
22131;SDS011;11232;51.748;19.390;2023-07-31T02:08:35;9.07;;;4.72;;
22131;SDS011;11232;51.748;19.390;2023-07-31T02:11:01;7.53;;;4.65;;
22131;SDS011;11232;51.748;19.390;2023-07-31T02:13:27;8.50;;;4.45;;
22131;SDS011;11232;51.748;19.390;2023-07-31T02:15:53;5.00;;;4.15;;
22131;SDS011;11232;51.748;19.390;2023-07-31T02:18:19;6.35;;;4.70;;
22131;SDS011;11232;51.748;19.390;2023-07-31T02:20:50;5.38;;;4.15;;
22131;SDS011;11232;51.748;19.390;2023-07-31T02:23:16;5.32;;;4.32;;
22131;SDS011;11232;51.748;19.390;2023-07-31T02:25:43;5.53;;;4.43;;
22131;SDS011;11232;51.748;19.390;2023-07-31T02:28:09;7.28;;;4.30;;
22131;SDS011;11232;51.748;19.390;2023-07-31T02:30:35;7.35;;;4.20;;
22131;SDS011;11232;51.748;19.390;2023-07-31T02:33:01;7.68;;;4.30;;
22131;SDS011;11232;51.748;19.390;2023-07-31T02:35:26;7.07;;;4.10;;
22131;SDS011;11232;51.748;19.390;2023-07-31T02:37:52;6.75;;;4.15;;
22131;SDS011;11232;51.748;19.390;2023-07-31T02:40:18;5.57;;;3.92;;
22131;SDS011;11232;51.748;19.390;2023-07-31T02:42:44;5.30;;;3.92;;
22131;SDS011;11232;51.748;19.390;2023-07-31T02:45:10;6.53;;;4.05;;
22131;SDS011;11232;51.748;19.390;2023-07-31T02:47:36;5.88;;;4.22;;
22131;SDS011;11232;51.748;19.390;2023-07-31T02:50:03;6.70;;;3.85;;
22131;SDS011;11232;51.748;19.390;2023-07-31T02:52:29;5.63;;;4.22;;
22131;SDS011;11232;51.748;19.390;2023-07-31T02:54:56;6.10;;;4.45;;
22131;SDS011;11232;51.748;19.390;2023-07-31T02:57:22;5.35;;;4.47;;
22131;SDS011;11232;51.748;19.390;2023-07-31T02:59:48;5.70;;;4.13;;
22131;SDS011;11232;51.748;19.390;2023-07-31T03:02:14;9.35;;;4.13;;
22131;SDS011;11232;51.748;19.390;2023-07-31T03:04:40;7.38;;;4.45;;
22131;SDS011;11232;51.748;19.390;2023-07-31T03:07:06;5.85;;;3.75;;
22131;SDS011;11232;51.748;19.390;2023-07-31T03:09:32;10.48;;;4.45;;
22131;SDS011;11232;51.748;19.390;2023-07-31T03:11:58;4.80;;;4.07;;
22131;SDS011;11232;51.748;19.390;2023-07-31T03:14:24;4.85;;;4.28;;
22131;SDS011;11232;51.748;19.390;2023-07-31T03:16:51;6.57;;;4.50;;
22131;SDS011;11232;51.748;19.390;2023-07-31T03:19:17;7.35;;;3.85;;
22131;SDS011;11232;51.748;19.390;2023-07-31T03:21:43;6.50;;;4.25;;
22131;SDS011;11232;51.748;19.390;2023-07-31T03:24:09;10.13;;;4.38;;
22131;SDS011;11232;51.748;19.390;2023-07-31T03:26:37;6.15;;;4.97;;
22131;SDS011;11232;51.748;19.390;2023-07-31T03:29:03;5.43;;;4.50;;
22131;SDS011;11232;51.748;19.390;2023-07-31T03:31:29;9.30;;;4.82;;
22131;SDS011;11232;51.748;19.390;2023-07-31T03:33:55;9.82;;;4.53;;
22131;SDS011;11232;51.748;19.390;2023-07-31T03:36:21;11.25;;;4.13;;
22131;SDS011;11232;51.748;19.390;2023-07-31T03:38:47;12.05;;;4.55;;
22131;SDS011;11232;51.748;19.390;2023-07-31T03:41:13;5.93;;;3.90;;
22131;SDS011;11232;51.748;19.390;2023-07-31T03:43:39;7.00;;;3.92;;
22131;SDS011;11232;51.748;19.390;2023-07-31T03:46:05;7.72;;;4.22;;
22131;SDS011;11232;51.748;19.390;2023-07-31T03:48:31;4.60;;;3.92;;
22131;SDS011;11232;51.748;19.390;2023-07-31T03:50:57;4.82;;;4.32;;
22131;SDS011;11232;51.748;19.390;2023-07-31T03:53:23;6.28;;;4.20;;
22131;SDS011;11232;51.748;19.390;2023-07-31T03:55:49;7.28;;;4.25;;
22131;SDS011;11232;51.748;19.390;2023-07-31T03:58:15;7.80;;;4.45;;
22131;SDS011;11232;51.748;19.390;2023-07-31T04:00:41;6.93;;;4.63;;
22131;SDS011;11232;51.748;19.390;2023-07-31T04:03:07;6.75;;;3.95;;
22131;SDS011;11232;51.748;19.390;2023-07-31T04:05:33;8.80;;;4.13;;
22131;SDS011;11232;51.748;19.390;2023-07-31T04:07:59;6.18;;;3.83;;
22131;SDS011;11232;51.748;19.390;2023-07-31T04:10:24;8.02;;;3.80;;
22131;SDS011;11232;51.748;19.390;2023-07-31T04:12:50;7.40;;;4.10;;
22131;SDS011;11232;51.748;19.390;2023-07-31T04:15:16;7.97;;;4.63;;
22131;SDS011;11232;51.748;19.390;2023-07-31T04:17:42;7.47;;;4.15;;
22131;SDS011;11232;51.748;19.390;2023-07-31T04:20:08;4.90;;;3.10;;
22131;SDS011;11232;51.748;19.390;2023-07-31T04:22:35;6.32;;;3.67;;
22131;SDS011;11232;51.748;19.390;2023-07-31T04:25:01;4.90;;;3.88;;
22131;SDS011;11232;51.748;19.390;2023-07-31T04:27:27;7.18;;;4.18;;
22131;SDS011;11232;51.748;19.390;2023-07-31T04:29:52;5.07;;;3.72;;
22131;SDS011;11232;51.748;19.390;2023-07-31T04:32:18;7.53;;;4.07;;
22131;SDS011;11232;51.748;19.390;2023-07-31T04:34:45;8.23;;;4.03;;
22131;SDS011;11232;51.748;19.390;2023-07-31T04:37:11;5.32;;;3.63;;
22131;SDS011;11232;51.748;19.390;2023-07-31T04:39:38;7.97;;;4.00;;
22131;SDS011;11232;51.748;19.390;2023-07-31T04:42:04;5.75;;;3.60;;
22131;SDS011;11232;51.748;19.390;2023-07-31T04:44:30;4.80;;;3.50;;
22131;SDS011;11232;51.748;19.390;2023-07-31T04:46:56;7.38;;;3.88;;
22131;SDS011;11232;51.748;19.390;2023-07-31T04:49:22;4.93;;;3.05;;
22131;SDS011;11232;51.748;19.390;2023-07-31T04:51:48;4.93;;;3.22;;
22131;SDS011;11232;51.748;19.390;2023-07-31T04:54:14;3.40;;;3.10;;
22131;SDS011;11232;51.748;19.390;2023-07-31T04:56:40;5.82;;;3.20;;
22131;SDS011;11232;51.748;19.390;2023-07-31T04:59:06;5.35;;;3.22;;
22131;SDS011;11232;51.748;19.390;2023-07-31T05:01:32;8.43;;;3.30;;
22131;SDS011;11232;51.748;19.390;2023-07-31T05:03:58;6.00;;;3.50;;
22131;SDS011;11232;51.748;19.390;2023-07-31T05:06:24;5.63;;;3.10;;
22131;SDS011;11232;51.748;19.390;2023-07-31T05:08:50;8.23;;;3.47;;
22131;SDS011;11232;51.748;19.390;2023-07-31T05:11:16;10.00;;;3.72;;
22131;SDS011;11232;51.748;19.390;2023-07-31T05:13:42;5.35;;;3.63;;
22131;SDS011;11232;51.748;19.390;2023-07-31T05:16:08;4.45;;;3.30;;
22131;SDS011;11232;51.748;19.390;2023-07-31T05:18:34;5.88;;;3.40;;
22131;SDS011;11232;51.748;19.390;2023-07-31T05:21:00;4.28;;;3.05;;
22131;SDS011;11232;51.748;19.390;2023-07-31T05:23:27;5.43;;;2.88;;
22131;SDS011;11232;51.748;19.390;2023-07-31T05:25:53;6.22;;;3.33;;
22131;SDS011;11232;51.748;19.390;2023-07-31T05:28:20;13.23;;;3.38;;
22131;SDS011;11232;51.748;19.390;2023-07-31T05:30:46;5.15;;;3.17;;
22131;SDS011;11232;51.748;19.390;2023-07-31T05:33:12;6.03;;;3.10;;
22131;SDS011;11232;51.748;19.390;2023-07-31T05:35:38;4.32;;;2.92;;
22131;SDS011;11232;51.748;19.390;2023-07-31T05:38:04;6.95;;;3.47;;
22131;SDS011;11232;51.748;19.390;2023-07-31T05:40:32;6.90;;;3.38;;
22131;SDS011;11232;51.748;19.390;2023-07-31T05:42:58;8.82;;;3.25;;
22131;SDS011;11232;51.748;19.390;2023-07-31T05:45:25;5.53;;;3.20;;
22131;SDS011;11232;51.748;19.390;2023-07-31T05:47:51;5.75;;;3.03;;
22131;SDS011;11232;51.748;19.390;2023-07-31T05:50:17;6.60;;;3.10;;
22131;SDS011;11232;51.748;19.390;2023-07-31T05:52:43;8.05;;;3.05;;
22131;SDS011;11232;51.748;19.390;2023-07-31T05:55:09;6.15;;;2.85;;
22131;SDS011;11232;51.748;19.390;2023-07-31T05:57:35;5.53;;;3.08;;
22131;SDS011;11232;51.748;19.390;2023-07-31T06:00:01;7.93;;;3.58;;
22131;SDS011;11232;51.748;19.390;2023-07-31T06:02:28;8.10;;;2.70;;
22131;SDS011;11232;51.748;19.390;2023-07-31T06:04:57;7.43;;;3.47;;
22131;SDS011;11232;51.748;19.390;2023-07-31T06:07:23;6.47;;;2.95;;
22131;SDS011;11232;51.748;19.390;2023-07-31T06:09:49;4.55;;;2.90;;
22131;SDS011;11232;51.748;19.390;2023-07-31T06:12:15;4.65;;;3.30;;
22131;SDS011;11232;51.748;19.390;2023-07-31T06:14:43;5.60;;;3.33;;
22131;SDS011;11232;51.748;19.390;2023-07-31T06:17:09;4.18;;;2.92;;
22131;SDS011;11232;51.748;19.390;2023-07-31T06:19:35;6.22;;;3.08;;
22131;SDS011;11232;51.748;19.390;2023-07-31T06:22:01;6.68;;;3.58;;
22131;SDS011;11232;51.748;19.390;2023-07-31T06:24:28;7.93;;;3.65;;
22131;SDS011;11232;51.748;19.390;2023-07-31T06:26:54;5.63;;;3.13;;
22131;SDS011;11232;51.748;19.390;2023-07-31T06:29:22;5.60;;;2.92;;
22131;SDS011;11232;51.748;19.390;2023-07-31T06:31:48;6.05;;;2.92;;
22131;SDS011;11232;51.748;19.390;2023-07-31T06:34:14;7.28;;;3.10;;
22131;SDS011;11232;51.748;19.390;2023-07-31T06:36:40;4.88;;;2.72;;
22131;SDS011;11232;51.748;19.390;2023-07-31T06:39:06;5.03;;;2.97;;
22131;SDS011;11232;51.748;19.390;2023-07-31T06:41:32;4.40;;;2.95;;
22131;SDS011;11232;51.748;19.390;2023-07-31T06:43:58;5.10;;;2.92;;
22131;SDS011;11232;51.748;19.390;2023-07-31T06:46:24;5.18;;;2.90;;
22131;SDS011;11232;51.748;19.390;2023-07-31T06:48:50;3.60;;;2.72;;
22131;SDS011;11232;51.748;19.390;2023-07-31T06:51:16;6.00;;;2.88;;
22131;SDS011;11232;51.748;19.390;2023-07-31T06:53:42;6.68;;;2.75;;
22131;SDS011;11232;51.748;19.390;2023-07-31T06:56:10;3.78;;;3.08;;
22131;SDS011;11232;51.748;19.390;2023-07-31T06:58:36;6.00;;;2.78;;
22131;SDS011;11232;51.748;19.390;2023-07-31T07:01:02;5.00;;;2.88;;
22131;SDS011;11232;51.748;19.390;2023-07-31T07:03:28;6.28;;;2.58;;
22131;SDS011;11232;51.748;19.390;2023-07-31T07:05:54;3.97;;;2.67;;
22131;SDS011;11232;51.748;19.390;2023-07-31T07:08:20;4.00;;;2.63;;
22131;SDS011;11232;51.748;19.390;2023-07-31T07:10:47;4.75;;;3.05;;
22131;SDS011;11232;51.748;19.390;2023-07-31T07:13:13;6.90;;;2.60;;
22131;SDS011;11232;51.748;19.390;2023-07-31T07:15:39;4.28;;;2.78;;
22131;SDS011;11232;51.748;19.390;2023-07-31T07:18:05;5.78;;;2.08;;
22131;SDS011;11232;51.748;19.390;2023-07-31T07:20:31;3.15;;;2.65;;
22131;SDS011;11232;51.748;19.390;2023-07-31T07:22:57;3.35;;;2.20;;
22131;SDS011;11232;51.748;19.390;2023-07-31T07:25:23;3.13;;;2.47;;
22131;SDS011;11232;51.748;19.390;2023-07-31T07:27:49;4.05;;;2.15;;
22131;SDS011;11232;51.748;19.390;2023-07-31T07:30:16;3.63;;;2.80;;
22131;SDS011;11232;51.748;19.390;2023-07-31T07:32:42;4.82;;;2.78;;
22131;SDS011;11232;51.748;19.390;2023-07-31T07:35:08;5.55;;;2.55;;
22131;SDS011;11232;51.748;19.390;2023-07-31T07:37:34;3.15;;;2.30;;
22131;SDS011;11232;51.748;19.390;2023-07-31T07:40:00;4.75;;;2.35;;
22131;SDS011;11232;51.748;19.390;2023-07-31T07:42:26;5.53;;;3.10;;
22131;SDS011;11232;51.748;19.390;2023-07-31T07:44:52;4.20;;;2.17;;
22131;SDS011;11232;51.748;19.390;2023-07-31T07:47:18;4.40;;;2.38;;
22131;SDS011;11232;51.748;19.390;2023-07-31T07:49:44;4.55;;;2.10;;
22131;SDS011;11232;51.748;19.390;2023-07-31T07:52:10;5.60;;;2.03;;
22131;SDS011;11232;51.748;19.390;2023-07-31T07:54:36;5.32;;;2.15;;
22131;SDS011;11232;51.748;19.390;2023-07-31T07:57:02;3.97;;;2.15;;
22131;SDS011;11232;51.748;19.390;2023-07-31T07:59:28;2.38;;;1.90;;
22131;SDS011;11232;51.748;19.390;2023-07-31T08:01:54;4.03;;;2.00;;
22131;SDS011;11232;51.748;19.390;2023-07-31T08:04:20;2.63;;;1.70;;
22131;SDS011;11232;51.748;19.390;2023-07-31T08:06:46;5.28;;;1.85;;
22131;SDS011;11232;51.748;19.390;2023-07-31T08:09:12;3.47;;;1.60;;
22131;SDS011;11232;51.748;19.390;2023-07-31T08:11:38;5.68;;;2.10;;
22131;SDS011;11232;51.748;19.390;2023-07-31T08:14:05;5.05;;;1.70;;
22131;SDS011;11232;51.748;19.390;2023-07-31T08:16:31;2.92;;;2.00;;
22131;SDS011;11232;51.748;19.390;2023-07-31T08:18:57;4.88;;;1.85;;
22131;SDS011;11232;51.748;19.390;2023-07-31T08:21:23;4.32;;;1.60;;
22131;SDS011;11232;51.748;19.390;2023-07-31T08:23:49;2.50;;;1.98;;
22131;SDS011;11232;51.748;19.390;2023-07-31T08:26:15;3.17;;;1.65;;
22131;SDS011;11232;51.748;19.390;2023-07-31T08:28:42;3.17;;;1.73;;
22131;SDS011;11232;51.748;19.390;2023-07-31T08:31:08;5.07;;;1.75;;
22131;SDS011;11232;51.748;19.390;2023-07-31T08:33:34;4.13;;;1.95;;
22131;SDS011;11232;51.748;19.390;2023-07-31T08:36:00;4.88;;;2.55;;
22131;SDS011;11232;51.748;19.390;2023-07-31T08:38:26;5.82;;;2.28;;
22131;SDS011;11232;51.748;19.390;2023-07-31T08:40:54;3.92;;;1.90;;
22131;SDS011;11232;51.748;19.390;2023-07-31T08:43:20;6.30;;;2.10;;
22131;SDS011;11232;51.748;19.390;2023-07-31T08:45:48;4.47;;;1.90;;
22131;SDS011;11232;51.748;19.390;2023-07-31T08:48:15;3.92;;;2.00;;
22131;SDS011;11232;51.748;19.390;2023-07-31T08:50:41;4.63;;;2.03;;
22131;SDS011;11232;51.748;19.390;2023-07-31T08:53:07;4.95;;;2.20;;
22131;SDS011;11232;51.748;19.390;2023-07-31T08:55:34;4.45;;;2.05;;
22131;SDS011;11232;51.748;19.390;2023-07-31T08:58:00;3.40;;;1.80;;
22131;SDS011;11232;51.748;19.390;2023-07-31T09:00:27;2.42;;;1.70;;
22131;SDS011;11232;51.748;19.390;2023-07-31T09:03:00;4.38;;;2.03;;
22131;SDS011;11232;51.748;19.390;2023-07-31T09:05:28;3.28;;;1.63;;
22131;SDS011;11232;51.748;19.390;2023-07-31T09:07:54;6.00;;;2.25;;
22131;SDS011;11232;51.748;19.390;2023-07-31T09:10:21;3.72;;;2.10;;
22131;SDS011;11232;51.748;19.390;2023-07-31T09:12:47;9.20;;;2.45;;
22131;SDS011;11232;51.748;19.390;2023-07-31T09:15:14;4.13;;;2.22;;
22131;SDS011;11232;51.748;19.390;2023-07-31T09:17:40;4.53;;;2.20;;
22131;SDS011;11232;51.748;19.390;2023-07-31T09:20:24;4.72;;;2.00;;
22131;SDS011;11232;51.748;19.390;2023-07-31T09:22:50;2.97;;;1.60;;
22131;SDS011;11232;51.748;19.390;2023-07-31T09:25:24;3.90;;;1.80;;
22131;SDS011;11232;51.748;19.390;2023-07-31T09:27:51;3.08;;;2.13;;
22131;SDS011;11232;51.748;19.390;2023-07-31T09:30:17;5.68;;;2.53;;
22131;SDS011;11232;51.748;19.390;2023-07-31T09:32:44;4.75;;;1.98;;
22131;SDS011;11232;51.748;19.390;2023-07-31T09:35:27;5.05;;;2.08;;
22131;SDS011;11232;51.748;19.390;2023-07-31T09:37:55;2.67;;;1.77;;
22131;SDS011;11232;51.748;19.390;2023-07-31T09:42:52;5.22;;;2.20;;
22131;SDS011;11232;51.748;19.390;2023-07-31T09:45:18;3.78;;;2.00;;
22131;SDS011;11232;51.748;19.390;2023-07-31T09:47:47;4.55;;;1.95;;
22131;SDS011;11232;51.748;19.390;2023-07-31T09:50:14;7.68;;;2.28;;
22131;SDS011;11232;51.748;19.390;2023-07-31T09:52:41;2.88;;;2.03;;
22131;SDS011;11232;51.748;19.390;2023-07-31T09:55:07;3.22;;;2.28;;
22131;SDS011;11232;51.748;19.390;2023-07-31T09:57:34;4.10;;;1.80;;
22131;SDS011;11232;51.748;19.390;2023-07-31T10:00:00;4.95;;;2.08;;
22131;SDS011;11232;51.748;19.390;2023-07-31T10:02:26;3.53;;;2.10;;
22131;SDS011;11232;51.748;19.390;2023-07-31T10:04:53;6.60;;;1.83;;
22131;SDS011;11232;51.748;19.390;2023-07-31T10:07:23;7.57;;;1.83;;
22131;SDS011;11232;51.748;19.390;2023-07-31T10:09:51;2.42;;;1.63;;
22131;SDS011;11232;51.748;19.390;2023-07-31T10:12:18;3.88;;;1.67;;
22131;SDS011;11232;51.748;19.390;2023-07-31T10:14:45;4.15;;;1.90;;
22131;SDS011;11232;51.748;19.390;2023-07-31T10:17:11;3.47;;;1.60;;
22131;SDS011;11232;51.748;19.390;2023-07-31T10:19:37;4.15;;;1.90;;
22131;SDS011;11232;51.748;19.390;2023-07-31T10:22:04;4.35;;;1.60;;
22131;SDS011;11232;51.748;19.390;2023-07-31T10:24:30;3.70;;;1.92;;
22131;SDS011;11232;51.748;19.390;2023-07-31T10:26:57;4.90;;;1.80;;
22131;SDS011;11232;51.748;19.390;2023-07-31T10:29:23;4.97;;;1.90;;
22131;SDS011;11232;51.748;19.390;2023-07-31T10:31:50;5.30;;;2.10;;
22131;SDS011;11232;51.748;19.390;2023-07-31T10:34:16;4.32;;;2.05;;
22131;SDS011;11232;51.748;19.390;2023-07-31T10:36:42;3.95;;;1.90;;
22131;SDS011;11232;51.748;19.390;2023-07-31T10:41:54;3.85;;;1.75;;
22131;SDS011;11232;51.748;19.390;2023-07-31T10:44:20;2.42;;;1.60;;
22131;SDS011;11232;51.748;19.390;2023-07-31T10:46:46;5.35;;;2.20;;
22131;SDS011;11232;51.748;19.390;2023-07-31T10:49:12;4.90;;;1.70;;
22131;SDS011;11232;51.748;19.390;2023-07-31T10:51:46;3.03;;;1.55;;
22131;SDS011;11232;51.748;19.390;2023-07-31T10:54:13;4.40;;;1.80;;
22131;SDS011;11232;51.748;19.390;2023-07-31T10:56:40;6.53;;;2.10;;
22131;SDS011;11232;51.748;19.390;2023-07-31T10:59:06;6.07;;;1.70;;
22131;SDS011;11232;51.748;19.390;2023-07-31T11:04:21;5.50;;;1.90;;
22131;SDS011;11232;51.748;19.390;2023-07-31T11:06:55;2.50;;;1.80;;
22131;SDS011;11232;51.748;19.390;2023-07-31T11:09:22;3.83;;;1.52;;
22131;SDS011;11232;51.748;19.390;2023-07-31T11:11:47;4.00;;;1.45;;
22131;SDS011;11232;51.748;19.390;2023-07-31T11:14:16;4.25;;;1.50;;
22131;SDS011;11232;51.748;19.390;2023-07-31T11:16:42;4.75;;;1.73;;
22131;SDS011;11232;51.748;19.390;2023-07-31T11:19:08;2.15;;;1.60;;
22131;SDS011;11232;51.748;19.390;2023-07-31T11:21:34;6.68;;;1.90;;
22131;SDS011;11232;51.748;19.390;2023-07-31T11:24:01;5.35;;;1.55;;
22131;SDS011;11232;51.748;19.390;2023-07-31T11:26:27;2.15;;;1.50;;
22131;SDS011;11232;51.748;19.390;2023-07-31T11:28:53;4.28;;;1.90;;
22131;SDS011;11232;51.748;19.390;2023-07-31T11:31:19;3.85;;;1.70;;
22131;SDS011;11232;51.748;19.390;2023-07-31T11:33:45;4.53;;;1.73;;
22131;SDS011;11232;51.748;19.390;2023-07-31T11:36:15;7.18;;;1.70;;
22131;SDS011;11232;51.748;19.390;2023-07-31T11:38:49;3.22;;;1.40;;
22131;SDS011;11232;51.748;19.390;2023-07-31T11:41:15;3.72;;;1.50;;
22131;SDS011;11232;51.748;19.390;2023-07-31T11:43:41;5.65;;;2.00;;
22131;SDS011;11232;51.748;19.390;2023-07-31T11:46:07;5.03;;;1.80;;
22131;SDS011;11232;51.748;19.390;2023-07-31T11:48:34;3.30;;;1.80;;
22131;SDS011;11232;51.748;19.390;2023-07-31T11:51:02;3.28;;;1.83;;
22131;SDS011;11232;51.748;19.390;2023-07-31T11:53:31;4.75;;;1.70;;
22131;SDS011;11232;51.748;19.390;2023-07-31T11:55:59;4.28;;;1.70;;
22131;SDS011;11232;51.748;19.390;2023-07-31T11:58:26;5.07;;;2.00;;
22131;SDS011;11232;51.748;19.390;2023-07-31T12:00:53;3.17;;;1.60;;
22131;SDS011;11232;51.748;19.390;2023-07-31T12:03:19;3.08;;;1.70;;
22131;SDS011;11232;51.748;19.390;2023-07-31T12:05:47;4.32;;;1.50;;
22131;SDS011;11232;51.748;19.390;2023-07-31T12:08:13;3.35;;;1.50;;
22131;SDS011;11232;51.748;19.390;2023-07-31T12:10:40;6.10;;;1.80;;
22131;SDS011;11232;51.748;19.390;2023-07-31T12:13:07;6.07;;;1.90;;
22131;SDS011;11232;51.748;19.390;2023-07-31T12:15:39;6.85;;;1.92;;
22131;SDS011;11232;51.748;19.390;2023-07-31T12:18:06;3.80;;;1.50;;
22131;SDS011;11232;51.748;19.390;2023-07-31T12:20:32;7.65;;;2.10;;
22131;SDS011;11232;51.748;19.390;2023-07-31T12:22:59;3.35;;;1.83;;
22131;SDS011;11232;51.748;19.390;2023-07-31T12:25:28;4.43;;;1.55;;
22131;SDS011;11232;51.748;19.390;2023-07-31T12:27:54;5.75;;;1.52;;
22131;SDS011;11232;51.748;19.390;2023-07-31T12:30:31;4.22;;;1.20;;
22131;SDS011;11232;51.748;19.390;2023-07-31T12:32:57;5.75;;;1.52;;
22131;SDS011;11232;51.748;19.390;2023-07-31T12:35:34;3.20;;;1.70;;
22131;SDS011;11232;51.748;19.390;2023-07-31T12:38:03;3.90;;;1.50;;
22131;SDS011;11232;51.748;19.390;2023-07-31T12:40:29;8.13;;;1.63;;
22131;SDS011;11232;51.748;19.390;2023-07-31T12:42:56;5.05;;;1.60;;
22131;SDS011;11232;51.748;19.390;2023-07-31T12:45:22;4.05;;;1.63;;
22131;SDS011;11232;51.748;19.390;2023-07-31T12:47:48;9.43;;;2.33;;
22131;SDS011;11232;51.748;19.390;2023-07-31T12:50:15;6.10;;;2.55;;
22131;SDS011;11232;51.748;19.390;2023-07-31T12:52:41;2.42;;;1.65;;
22131;SDS011;11232;51.748;19.390;2023-07-31T12:55:07;1.88;;;1.60;;
22131;SDS011;11232;51.748;19.390;2023-07-31T12:57:33;3.85;;;1.63;;
22131;SDS011;11232;51.748;19.390;2023-07-31T12:59:59;4.47;;;1.63;;
22131;SDS011;11232;51.748;19.390;2023-07-31T13:02:25;4.95;;;1.60;;
22131;SDS011;11232;51.748;19.390;2023-07-31T13:04:52;4.28;;;1.70;;
22131;SDS011;11232;51.748;19.390;2023-07-31T13:07:19;4.82;;;1.55;;
22131;SDS011;11232;51.748;19.390;2023-07-31T13:09:45;4.85;;;1.73;;
22131;SDS011;11232;51.748;19.390;2023-07-31T13:12:11;4.35;;;1.58;;
22131;SDS011;11232;51.748;19.390;2023-07-31T13:14:37;4.80;;;1.67;;
22131;SDS011;11232;51.748;19.390;2023-07-31T13:17:03;4.50;;;1.88;;
22131;SDS011;11232;51.748;19.390;2023-07-31T13:19:29;6.80;;;1.65;;
22131;SDS011;11232;51.748;19.390;2023-07-31T13:21:55;3.40;;;1.50;;
22131;SDS011;11232;51.748;19.390;2023-07-31T13:24:21;2.25;;;1.40;;
22131;SDS011;11232;51.748;19.390;2023-07-31T13:26:47;6.65;;;1.90;;
22131;SDS011;11232;51.748;19.390;2023-07-31T13:29:13;4.35;;;2.05;;
22131;SDS011;11232;51.748;19.390;2023-07-31T13:31:39;3.03;;;1.80;;
22131;SDS011;11232;51.748;19.390;2023-07-31T13:34:05;4.75;;;1.50;;
22131;SDS011;11232;51.748;19.390;2023-07-31T13:36:30;4.32;;;1.92;;
22131;SDS011;11232;51.748;19.390;2023-07-31T13:38:58;3.45;;;1.83;;
22131;SDS011;11232;51.748;19.390;2023-07-31T13:41:24;4.95;;;1.77;;
22131;SDS011;11232;51.748;19.390;2023-07-31T13:43:50;3.95;;;1.75;;
22131;SDS011;11232;51.748;19.390;2023-07-31T13:46:16;6.78;;;2.00;;
22131;SDS011;11232;51.748;19.390;2023-07-31T13:48:42;2.28;;;1.55;;
22131;SDS011;11232;51.748;19.390;2023-07-31T13:51:08;2.63;;;1.60;;
22131;SDS011;11232;51.748;19.390;2023-07-31T13:53:34;6.75;;;1.42;;
22131;SDS011;11232;51.748;19.390;2023-07-31T13:56:00;5.03;;;2.28;;
22131;SDS011;11232;51.748;19.390;2023-07-31T13:58:26;4.70;;;1.40;;
22131;SDS011;11232;51.748;19.390;2023-07-31T14:00:52;4.68;;;1.75;;
22131;SDS011;11232;51.748;19.390;2023-07-31T14:03:18;4.10;;;1.58;;
22131;SDS011;11232;51.748;19.390;2023-07-31T14:05:44;4.40;;;1.73;;
22131;SDS011;11232;51.748;19.390;2023-07-31T14:08:10;5.45;;;1.58;;
22131;SDS011;11232;51.748;19.390;2023-07-31T14:10:36;4.35;;;1.70;;
22131;SDS011;11232;51.748;19.390;2023-07-31T14:13:02;4.93;;;1.67;;
22131;SDS011;11232;51.748;19.390;2023-07-31T14:15:28;3.58;;;1.60;;
22131;SDS011;11232;51.748;19.390;2023-07-31T14:17:54;2.70;;;1.80;;
22131;SDS011;11232;51.748;19.390;2023-07-31T14:20:20;4.18;;;1.70;;
22131;SDS011;11232;51.748;19.390;2023-07-31T14:22:46;4.43;;;1.85;;
22131;SDS011;11232;51.748;19.390;2023-07-31T14:25:12;2.50;;;1.60;;
22131;SDS011;11232;51.748;19.390;2023-07-31T14:27:38;7.45;;;1.80;;
22131;SDS011;11232;51.748;19.390;2023-07-31T14:30:04;4.03;;;1.75;;
22131;SDS011;11232;51.748;19.390;2023-07-31T14:32:30;2.97;;;1.60;;
22131;SDS011;11232;51.748;19.390;2023-07-31T14:34:56;4.13;;;1.83;;
22131;SDS011;11232;51.748;19.390;2023-07-31T14:37:25;6.90;;;2.20;;
22131;SDS011;11232;51.748;19.390;2023-07-31T14:39:52;3.92;;;1.88;;